Time;durP1;ratioP1;P1;durP2;ratioP2;P2;SDS_P1;SDS_P2;PMS_P1;PMS_P2;Temp;Humidity;BMP_temperature;BMP_pressure;BME280_temperature;BME280_humidity;BME280_pressure;Samples;Min_cycle;Max_cycle;Signal;HPM_P1;HPM_P2
2022/09/28 00:00:13;;;;;;;5.22;3.75;;;;;;;12.13;100.00;99067.03;6175345;23;20008;-66
2022/09/28 00:02:39;;;;;;;4.60;3.35;;;;;;;12.24;100.00;99074.69;6175466;23;20033;-66
2022/09/28 00:05:05;;;;;;;7.20;4.20;;;;;;;12.23;100.00;99075.72;6175141;23;20005;-66
2022/09/28 00:07:30;;;;;;;4.25;3.40;;;;;;;12.22;100.00;99079.41;6148910;23;20285;-66
2022/09/28 00:09:56;;;;;;;7.65;3.28;;;;;;;12.19;100.00;99069.00;6175736;23;20033;-67
2022/09/28 00:12:21;;;;;;;3.88;3.42;;;;;;;12.08;100.00;99055.94;6149298;22;20013;-66
2022/09/28 00:14:47;;;;;;;6.25;3.55;;;;;;;12.15;100.00;99065.00;6175595;23;20338;-66
2022/09/28 00:17:12;;;;;;;4.30;3.50;;;;;;;12.08;100.00;99050.56;6175150;23;20009;-66
2022/09/28 00:19:39;;;;;;;5.85;3.47;;;;;;;12.10;100.00;99051.25;6175123;23;20009;-66
2022/09/28 00:22:05;;;;;;;5.28;3.80;;;;;;;12.00;100.00;99040.72;6175159;23;20084;-67
2022/09/28 00:24:31;;;;;;;6.85;3.50;;;;;;;12.12;100.00;99060.78;6175132;23;20645;-66
2022/09/28 00:27:00;;;;;;;4.75;2.83;;;;;;;11.98;100.00;99041.88;6175150;23;20035;-66
2022/09/28 00:29:31;;;;;;;3.05;2.70;;;;;;;12.06;100.00;99064.19;6175290;23;20001;-66
2022/09/28 00:32:01;;;;;;;5.78;2.67;;;;;;;12.03;100.00;99082.53;6174835;23;20014;-66
2022/09/28 00:34:42;;;;;;;4.10;2.97;;;;;;;11.94;100.00;99070.13;6174973;23;20012;-66
2022/09/28 00:37:08;;;;;;;5.43;3.08;;;;;;;11.92;100.00;99064.06;6175204;23;20501;-66
2022/09/28 00:39:34;;;;;;;3.95;2.78;;;;;;;11.98;100.00;99079.50;6175185;23;20008;-66
2022/09/28 00:42:01;;;;;;;3.85;2.88;;;;;;;11.88;100.00;99073.50;6175344;23;20005;-66
2022/09/28 00:44:36;;;;;;;3.35;2.50;;;;;;;11.96;100.00;99074.31;6149798;23;20028;-66
2022/09/28 00:47:13;;;;;;;5.13;2.50;;;;;;;12.04;100.00;99074.28;6176082;23;20439;-66
2022/09/28 00:49:42;;;;;;;2.50;2.22;;;;;;;12.04;100.00;99073.44;6176542;23;20009;-72
2022/09/28 00:52:12;;;;;;;2.63;2.08;;;;;;;11.91;99.92;99062.41;6150330;22;20488;-72
2022/09/28 00:54:40;;;;;;;2.88;2.13;;;;;;;12.04;99.09;99070.75;6176655;23;20005;-72
2022/09/28 00:57:06;;;;;;;3.72;2.28;;;;;;;11.92;99.11;99045.25;6176634;23;20028;-72
2022/09/28 00:59:32;;;;;;;4.18;2.03;;;;;;;11.91;99.09;99065.09;6176796;23;20001;-72
2022/09/28 01:01:59;;;;;;;6.20;2.40;;;;;;;11.88;99.52;99081.56;6176787;23;20661;-72
2022/09/28 01:04:24;;;;;;;3.15;2.17;;;;;;;11.84;100.00;99069.47;6176474;23;20100;-72
2022/09/28 01:06:50;;;;;;;2.90;2.15;;;;;;;11.78;100.00;99083.59;6176953;23;20037;-72
2022/09/28 01:09:17;;;;;;;3.72;2.00;;;;;;;11.74;100.00;99085.81;6176739;23;20009;-72
2022/09/28 01:11:42;;;;;;;3.17;1.95;;;;;;;11.68;100.00;99074.91;6176776;23;20028;-72
2022/09/28 01:14:13;;;;;;;3.60;2.10;;;;;;;11.71;100.00;99082.63;6178805;23;20028;-72
2022/09/28 01:16:41;;;;;;;2.88;2.58;;;;;;;11.73;100.00;99077.94;6152746;23;20021;-72
2022/09/28 01:19:40;;;;;;;2.72;2.08;;;;;;;11.74;100.00;99068.84;6178876;23;20001;-72
2022/09/28 01:22:34;;;;;;;4.05;2.30;;;;;;;11.73;99.87;99083.28;6178960;23;20005;-72
2022/09/28 01:25:36;;;;;;;3.33;2.28;;;;;;;11.76;99.29;99086.47;6178969;23;20464;-72
2022/09/28 01:28:14;;;;;;;6.30;2.22;;;;;;;11.82;99.01;99087.63;6178909;23;20008;-72
2022/09/28 01:30:57;;;;;;;4.43;2.40;;;;;;;11.81;98.20;99099.38;6152652;23;20402;-72
2022/09/28 01:33:30;;;;;;;3.55;2.08;;;;;;;11.77;98.43;99092.69;6179068;23;20028;-72
2022/09/28 01:36:21;;;;;;;2.63;2.00;;;;;;;11.70;98.44;99097.88;6178979;23;20062;-72
2022/09/28 01:38:55;;;;;;;3.65;2.15;;;;;;;11.59;99.25;99092.84;6136873;23;20437;-72
2022/09/28 01:41:22;;;;;;;3.40;2.00;;;;;;;11.55;99.76;99113.00;6179969;23;20001;-72
2022/09/28 01:43:54;;;;;;;3.90;2.17;;;;;;;11.55;98.95;99108.44;6179116;23;20557;-72
2022/09/28 01:46:23;;;;;;;4.30;1.95;;;;;;;11.67;97.77;99122.41;6178964;23;20009;-72
2022/09/28 01:49:05;;;;;;;3.13;1.75;;;;;;;11.42;98.34;99094.72;6150503;23;20512;-72
2022/09/28 01:51:33;;;;;;;4.07;1.50;;;;;;;11.70;95.99;99126.63;6176691;23;20447;-72
2022/09/28 01:54:05;;;;;;;3.88;1.85;;;;;;;11.62;96.88;99123.91;6176513;23;20470;-72
2022/09/28 01:56:38;;;;;;;3.33;2.05;;;;;;;11.55;96.89;99119.19;6176818;23;20040;-72
2022/09/28 01:59:21;;;;;;;3.75;1.60;;;;;;;11.45;96.73;99113.16;6176698;23;20005;-72
2022/09/28 02:01:57;;;;;;;2.25;1.45;;;;;;;11.55;95.41;99116.50;6176517;23;20097;-72
2022/09/28 02:04:31;;;;;;;4.53;1.48;;;;;;;11.65;94.80;99118.22;6177303;23;20028;-72
2022/09/28 02:07:27;;;;;;;3.03;1.42;;;;;;;11.52;95.43;99116.84;6177042;23;20009;-72
2022/09/28 02:09:58;;;;;;;2.40;1.20;;;;;;;11.46;96.18;99112.19;6176276;23;20333;-72
2022/09/28 02:12:31;;;;;;;1.20;1.00;;;;;;;11.49;95.58;99122.56;6176443;23;20771;-72
2022/09/28 02:15:10;;;;;;;1.30;1.20;;;;;;;11.63;94.28;99126.44;6176980;23;20005;-72
2022/09/28 02:17:36;;;;;;;3.97;1.30;;;;;;;11.63;94.18;99126.44;6176903;23;20302;-72
2022/09/28 02:20:02;;;;;;;2.15;1.20;;;;;;;11.49;94.25;99119.88;6176596;23;20016;-72
2022/09/28 02:22:49;;;;;;;2.65;1.40;;;;;;;11.61;94.02;99135.66;6176390;23;20090;-72
2022/09/28 02:25:20;;;;;;;1.35;1.10;;;;;;;11.65;93.16;99135.19;6175836;23;20005;-71
2022/09/28 02:28:00;;;;;;;4.30;1.20;;;;;;;11.60;93.81;99142.03;6150142;22;20448;-72
2022/09/28 02:30:28;;;;;;;1.38;1.20;;;;;;;11.57;94.02;99145.06;6176238;23;20421;-72
2022/09/28 02:32:59;;;;;;;2.28;1.00;;;;;;;11.57;93.48;99145.06;6176199;23;20017;-72
2022/09/28 02:35:25;;;;;;;1.05;0.95;;;;;;;11.34;94.13;99108.16;6176460;23;20028;-72
2022/09/28 02:37:51;;;;;;;2.67;1.25;;;;;;;11.46;93.23;99122.91;6176319;23;20001;-72
2022/09/28 02:40:19;;;;;;;4.53;1.20;;;;;;;11.49;94.26;99137.84;6176685;23;20012;-72
2022/09/28 02:42:56;;;;;;;4.40;1.30;;;;;;;11.41;94.88;99135.16;6178242;23;20012;-72
2022/09/28 02:45:37;;;;;;;2.08;1.30;;;;;;;11.36;96.31;99137.50;6179180;23;20427;-72
2022/09/28 02:48:39;;;;;;;2.22;1.23;;;;;;;11.33;97.07;99145.91;6178407;23;20353;-72
2022/09/28 02:51:12;;;;;;;1.73;1.20;;;;;;;11.30;98.21;99146.25;6178389;23;20337;-72
2022/09/28 02:53:43;;;;;;;3.45;1.73;;;;;;;11.28;98.98;99157.13;6178552;23;20058;-72
2022/09/28 02:56:41;;;;;;;2.10;1.23;;;;;;;11.27;98.93;99166.22;6178070;23;20016;-72
2022/09/28 02:59:38;;;;;;;3.67;1.48;;;;;;;11.26;98.85;99161.81;6179309;23;20080;-72
2022/09/28 03:02:13;;;;;;;2.35;1.10;;;;;;;11.28;99.17;99161.66;6178289;23;20520;-72
2022/09/28 03:05:23;;;;;;;2.90;1.55;;;;;;;11.26;98.99;99158.31;6177892;23;20032;-72
2022/09/28 03:07:58;;;;;;;2.60;1.55;;;;;;;11.27;99.24;99160.00;6172327;23;20591;-72
2022/09/28 03:10:34;;;;;;;1.33;1.15;;;;;;;11.08;98.41;99133.47;6175741;23;20058;-72
2022/09/28 03:13:00;;;;;;;3.38;1.38;;;;;;;10.93;97.98;99097.59;6176321;23;20013;-72
2022/09/28 03:15:31;;;;;;;2.92;1.48;;;;;;;11.29;97.58;99145.38;6176254;23;20464;-72
2022/09/28 03:17:57;;;;;;;3.00;1.67;;;;;;;11.26;96.95;99134.16;6177543;23;20048;-72
2022/09/28 03:20:24;;;;;;;2.95;1.45;;;;;;;11.31;95.52;99142.53;6177619;23;19997;-72
2022/09/28 03:22:50;;;;;;;1.40;1.20;;;;;;;11.24;94.78;99138.84;6177334;23;20074;-72
2022/09/28 03:25:16;;;;;;;2.80;1.40;;;;;;;11.29;94.88;99145.38;6151581;23;20008;-72
2022/09/28 03:27:42;;;;;;;2.55;1.38;;;;;;;11.18;95.05;99131.47;6151183;22;20009;-72
2022/09/28 03:30:09;;;;;;;2.70;1.65;;;;;;;11.28;94.77;99154.44;6177515;23;20302;-72
2022/09/28 03:32:34;;;;;;;1.30;1.10;;;;;;;11.22;95.93;99157.81;6177266;23;20125;-72
2022/09/28 03:35:00;;;;;;;2.90;1.40;;;;;;;11.10;96.72;99142.22;6177649;23;20037;-72
2022/09/28 03:37:26;;;;;;;6.00;1.25;;;;;;;11.13;95.98;99144.56;6177832;23;20452;-72
2022/09/28 03:39:52;;;;;;;5.25;1.70;;;;;;;11.12;96.50;99159.81;6177690;23;20011;-72
2022/09/28 03:42:17;;;;;;;2.15;1.40;;;;;;;10.73;96.58;99110.47;6177559;23;20017;-71
2022/09/28 03:44:42;;;;;;;2.63;1.50;;;;;;;11.08;96.41;99171.88;6178114;23;20027;-72
2022/09/28 03:47:08;;;;;;;3.45;1.45;;;;;;;10.92;97.25;99147.72;6177513;23;20013;-72
2022/09/28 03:49:34;;;;;;;1.70;1.38;;;;;;;10.98;98.58;99149.75;6151118;23;20031;-72
2022/09/28 03:52:00;;;;;;;3.70;1.55;;;;;;;11.02;98.06;99163.66;6177349;23;20062;-72
2022/09/28 03:54:25;;;;;;;3.65;1.30;;;;;;;11.00;98.08;99157.63;6177504;23;20001;-72
2022/09/28 03:56:51;;;;;;;3.58;1.73;;;;;;;10.97;97.55;99153.41;6151381;23;20020;-72
2022/09/28 03:59:17;;;;;;;4.97;1.88;;;;;;;11.03;97.22;99154.63;6150857;23;20330;-72
2022/09/28 04:01:43;;;;;;;4.63;2.00;;;;;;;11.07;96.27;99158.63;6177451;23;20023;-72
2022/09/28 04:04:12;;;;;;;6.13;2.30;;;;;;;10.99;97.38;99158.59;6177980;23;20029;-72
2022/09/28 04:06:38;;;;;;;5.38;2.30;;;;;;;10.90;97.68;99140.84;6177369;23;20073;-72
2022/09/28 04:09:03;;;;;;;6.07;2.15;;;;;;;10.88;98.17;99149.06;6177612;23;20426;-72
2022/09/28 04:11:29;;;;;;;6.20;2.40;;;;;;;10.81;98.25;99142.66;6177763;23;20340;-72
2022/09/28 04:13:54;;;;;;;6.95;2.60;;;;;;;10.78;98.70;99143.00;6177329;23;20011;-72
2022/09/28 04:16:20;;;;;;;4.20;2.40;;;;;;;10.85;99.20;99168.16;6177603;23;20341;-72
2022/09/28 04:18:47;;;;;;;8.10;2.90;;;;;;;10.83;99.37;99164.78;6150703;23;20024;-72
2022/09/28 04:21:15;;;;;;;8.98;3.15;;;;;;;10.90;98.31;99173.03;6150427;22;20794;-72
2022/09/28 04:23:41;;;;;;;5.72;2.50;;;;;;;10.83;98.26;99164.78;6150277;23;20086;-72
2022/09/28 04:26:15;;;;;;;5.53;2.28;;;;;;;10.87;98.71;99168.00;6177377;23;20030;-72
2022/09/28 04:31:26;;;;;;;2.40;1.52;;;;;;;10.90;97.95;99167.66;6176698;23;20606;-72
2022/09/28 04:33:52;;;;;;;3.72;2.00;;;;;;;10.83;97.75;99167.47;6150603;23;20013;-72
2022/09/28 04:36:18;;;;;;;3.25;2.05;;;;;;;10.87;98.71;99179.53;6176643;23;20501;-72
2022/09/28 04:38:44;;;;;;;4.50;2.17;;;;;;;10.88;99.59;99175.03;6150328;23;20036;-72
2022/09/28 04:41:10;;;;;;;4.70;2.03;;;;;;;10.77;99.95;99154.72;6177260;23;20368;-72
2022/09/28 04:43:36;;;;;;;2.05;1.75;;;;;;;10.85;100.00;99172.69;6177141;23;20013;-72
2022/09/28 04:46:04;;;;;;;3.80;1.73;;;;;;;10.86;100.00;99172.50;6176956;23;20084;-72
2022/09/28 04:48:30;;;;;;;4.82;1.85;;;;;;;10.88;100.00;99173.19;6177225;23;20017;-72
2022/09/28 04:50:57;;;;;;;3.00;1.95;;;;;;;10.67;100.00;99139.75;6176961;23;20082;-72
2022/09/28 04:53:24;;;;;;;4.80;1.80;;;;;;;10.90;100.00;99187.25;6148374;23;20345;-72
2022/09/28 04:56:04;;;;;;;4.47;2.58;;;;;;;10.90;100.00;99186.44;6148194;23;20450;-72
2022/09/28 04:58:30;;;;;;;3.85;2.00;;;;;;;10.87;100.00;99182.22;6175671;23;20087;-66
2022/09/28 05:00:58;;;;;;;4.43;1.80;;;;;;;10.90;100.00;99181.09;6149448;23;20001;-65
2022/09/28 05:03:24;;;;;;;4.38;2.30;;;;;;;10.89;100.00;99182.06;6148945;23;20005;-65
2022/09/28 05:05:50;;;;;;;9.05;2.03;;;;;;;10.89;100.00;99188.28;6150120;23;20446;-71
2022/09/28 05:08:15;;;;;;;8.30;2.67;;;;;;;10.92;100.00;99190.63;6176467;23;20434;-72
2022/09/28 05:10:42;;;;;;;5.82;2.50;;;;;;;10.94;100.00;99195.84;6176199;23;20080;-72
2022/09/28 05:13:09;;;;;;;5.43;2.10;;;;;;;10.94;100.00;99203.88;6176526;23;20009;-71
2022/09/28 05:15:38;;;;;;;4.35;2.00;;;;;;;10.98;100.00;99203.41;6149708;23;20005;-72
2022/09/28 05:18:04;;;;;;;5.30;2.60;;;;;;;11.01;100.00;99210.28;6150113;22;20020;-72
2022/09/28 05:20:30;;;;;;;5.40;1.85;;;;;;;10.99;98.73;99197.03;6176228;23;20001;-72
2022/09/28 05:22:55;;;;;;;1.70;1.48;;;;;;;10.90;98.36;99183.75;6149862;22;20012;-72
2022/09/28 05:25:21;;;;;;;2.05;1.52;;;;;;;11.00;98.73;99205.91;6175336;23;20033;-72
2022/09/28 05:27:47;;;;;;;6.88;1.92;;;;;;;11.02;98.74;99204.75;6174482;23;20037;-72
2022/09/28 05:30:12;;;;;;;3.05;2.20;;;;;;;11.05;98.52;99201.72;6149901;22;20082;-66
2022/09/28 05:32:43;;;;;;;5.65;1.80;;;;;;;11.05;97.67;99204.41;6149141;23;20033;-66
2022/09/28 05:35:10;;;;;;;2.20;1.73;;;;;;;11.14;96.75;99205.25;6176741;23;20043;-66
2022/09/28 05:37:36;;;;;;;2.97;2.17;;;;;;;11.13;96.83;99207.09;6150561;23;20008;-65
2022/09/28 05:40:02;;;;;;;6.95;2.25;;;;;;;11.24;95.96;99209.47;6176855;23;20368;-66
2022/09/28 05:42:29;;;;;;;3.13;1.90;;;;;;;11.22;95.96;99208.78;6176647;23;20009;-65
2022/09/28 05:44:54;;;;;;;6.78;2.15;;;;;;;11.27;95.95;99209.16;6176853;23;20043;-66
2022/09/28 05:47:21;;;;;;;4.00;2.33;;;;;;;11.24;95.34;99195.22;6177096;23;20476;-66
2022/09/28 05:49:46;;;;;;;4.22;1.88;;;;;;;11.34;95.61;99210.16;6150290;23;20017;-65
2022/09/28 05:52:11;;;;;;;3.20;2.05;;;;;;;11.34;96.35;99212.00;6177309;23;20032;-72
2022/09/28 05:54:37;;;;;;;3.95;2.05;;;;;;;11.33;96.55;99208.50;6150808;23;20054;-65
2022/09/28 05:57:05;;;;;;;2.53;1.65;;;;;;;11.34;96.46;99212.84;6176504;23;20008;-66
2022/09/28 05:59:33;;;;;;;4.53;2.08;;;;;;;11.10;96.22;99169.84;6176723;23;20458;-70
2022/09/28 06:02:00;;;;;;;4.03;2.00;;;;;;;11.19;97.21;99179.59;6151483;23;20005;-72
2022/09/28 06:04:25;;;;;;;2.60;2.10;;;;;;;11.32;97.86;99197.91;6178105;23;20012;-72
2022/09/28 06:06:51;;;;;;;3.75;1.90;;;;;;;11.39;97.76;99204.28;6176438;23;20009;-72
2022/09/28 06:09:16;;;;;;;3.83;2.08;;;;;;;11.42;97.36;99195.91;6176234;23;20001;-71
2022/09/28 06:11:41;;;;;;;3.28;2.10;;;;;;;11.47;97.32;99197.06;6177436;23;20019;-72
2022/09/28 06:14:07;;;;;;;4.88;2.10;;;;;;;11.49;97.46;99203.09;6150933;23;20013;-72
2022/09/28 06:16:33;;;;;;;2.65;1.85;;;;;;;11.57;97.29;99198.75;6177766;23;20005;-72
2022/09/28 06:18:59;;;;;;;2.75;2.05;;;;;;;11.52;97.20;99185.84;6178090;23;20058;-72
2022/09/28 06:21:25;;;;;;;2.45;1.95;;;;;;;11.67;96.40;99196.78;6177806;23;20477;-71
2022/09/28 06:23:50;;;;;;;3.85;2.03;;;;;;;11.72;95.54;99202.47;6177813;23;20093;-72
2022/09/28 06:26:16;;;;;;;5.68;2.28;;;;;;;11.76;95.89;99193.91;6151465;23;20019;-72
2022/09/28 06:28:42;;;;;;;3.75;2.30;;;;;;;11.88;95.69;99197.06;6151179;23;20013;-72
2022/09/28 06:31:07;;;;;;;6.65;2.70;;;;;;;11.95;96.08;99192.69;6176900;23;20040;-72
2022/09/28 06:33:34;;;;;;;7.57;2.95;;;;;;;12.03;94.37;99177.38;6177944;23;20005;-72
2022/09/28 06:36:00;;;;;;;5.65;3.30;;;;;;;12.20;94.38;99199.69;6151321;23;20009;-72
2022/09/28 06:38:26;;;;;;;8.68;3.40;;;;;;;12.34;93.92;99210.56;6177479;23;20005;-72
2022/09/28 06:40:51;;;;;;;7.82;3.95;;;;;;;12.39;90.74;99200.16;6176846;23;20005;-66
2022/09/28 06:43:17;;;;;;;7.15;4.10;;;;;;;12.46;91.72;99209.22;6175908;23;20013;-66
2022/09/28 06:45:49;;;;;;;7.00;4.15;;;;;;;12.54;90.66;99208.34;6176100;23;20009;-66
2022/09/28 06:48:15;;;;;;;8.00;3.60;;;;;;;12.68;91.35;99211.13;6149755;23;20016;-66
2022/09/28 06:50:41;;;;;;;8.27;4.40;;;;;;;12.83;91.20;99213.94;6149948;23;20017;-65
2022/09/28 06:53:09;;;;;;;8.32;3.47;;;;;;;12.91;89.94;99219.25;6175466;23;20032;-66
2022/09/28 06:55:38;;;;;;;7.32;3.22;;;;;;;13.01;88.33;99223.44;6175942;23;20001;-65
2022/09/28 06:58:06;;;;;;;12.95;2.92;;;;;;;13.09;89.63;99234.16;6149475;23;20492;-66
2022/09/28 07:00:34;;;;;;;8.48;3.17;;;;;;;13.33;91.10;99241.25;6149649;23;20076;-66
2022/09/28 07:03:05;;;;;;;3.33;2.05;;;;;;;13.64;88.29;99233.94;6176357;23;20440;-66
2022/09/28 07:05:35;;;;;;;2.85;2.05;;;;;;;14.00;82.24;99240.38;6171952;23;20036;-66
2022/09/28 07:08:02;;;;;;;5.60;2.38;;;;;;;14.23;81.00;99234.97;6175562;23;20088;-65
2022/09/28 07:10:29;;;;;;;6.55;1.92;;;;;;;14.45;79.89;99234.88;6149662;22;20009;-65
2022/09/28 07:12:55;;;;;;;6.20;2.40;;;;;;;14.65;79.15;99246.81;6175910;23;20653;-66
2022/09/28 07:15:22;;;;;;;5.22;2.33;;;;;;;14.92;78.50;99243.44;6175675;23;20041;-65
2022/09/28 07:17:47;;;;;;;8.05;2.42;;;;;;;15.19;78.00;99241.91;6149514;23;20058;-66
2022/09/28 07:20:13;;;;;;;5.63;3.05;;;;;;;15.58;73.53;99250.47;6176147;23;20388;-66
2022/09/28 07:22:39;;;;;;;7.28;2.80;;;;;;;15.87;72.38;99248.44;6175629;23;20410;-66
2022/09/28 07:25:06;;;;;;;4.30;2.17;;;;;;;16.15;68.29;99237.66;6175703;23;20012;-66
2022/09/28 07:27:31;;;;;;;3.08;2.08;;;;;;;16.49;67.11;99239.59;6149608;23;20480;-65
2022/09/28 07:29:57;;;;;;;7.80;2.00;;;;;;;16.90;66.79;99244.00;6149536;22;20028;-65
2022/09/28 07:32:23;;;;;;;5.95;2.15;;;;;;;17.30;64.58;99247.72;6175655;23;20017;-65
2022/09/28 07:34:48;;;;;;;4.65;2.03;;;;;;;17.84;61.91;99240.38;6175510;23;20013;-66
2022/09/28 07:37:17;;;;;;;5.82;1.90;;;;;;;18.38;60.68;99234.75;6149163;23;20012;-66
2022/09/28 07:42:29;;;;;;;3.58;1.42;;;;;;;20.06;54.29;99216.84;6174599;23;20058;-72
2022/09/28 07:44:55;;;;;;;2.47;1.90;;;;;;;21.12;51.59;99220.22;6174195;23;20070;-73
2022/09/28 07:47:25;;;;;;;4.97;2.25;;;;;;;22.02;49.01;99218.09;6175650;23;20062;-73
2022/09/28 07:49:58;;;;;;;8.20;2.10;;;;;;;23.15;45.74;99219.38;6151269;23;20405;-73
2022/09/28 07:52:25;;;;;;;2.92;1.80;;;;;;;23.91;42.43;99205.28;6150602;23;20013;-73
2022/09/28 07:54:54;;;;;;;4.53;1.77;;;;;;;24.43;40.82;99196.59;6177330;23;20012;-73
2022/09/28 07:57:20;;;;;;;2.60;1.60;;;;;;;25.28;40.03;99202.44;6177086;23;20337;-73
2022/09/28 07:59:47;;;;;;;4.05;1.70;;;;;;;26.27;37.12;99203.78;6176850;23;20023;-73
2022/09/28 08:02:13;;;;;;;3.60;1.65;;;;;;;26.56;36.17;99207.84;6177199;23;20004;-73
2022/09/28 08:04:39;;;;;;;3.85;1.75;;;;;;;26.59;36.05;99192.75;6176690;23;20009;-73
2022/09/28 08:07:10;;;;;;;3.80;1.60;;;;;;;27.10;35.43;99194.69;6176966;23;20001;-73
2022/09/28 08:09:35;;;;;;;2.17;1.27;;;;;;;28.41;32.83;99169.91;6177545;23;20430;-73
2022/09/28 08:12:02;;;;;;;2.63;1.35;;;;;;;28.63;32.62;99153.06;6174962;23;20012;-73
2022/09/28 08:14:32;;;;;;;3.35;1.52;;;;;;;29.30;31.12;99141.53;6175077;23;20004;-73
2022/09/28 08:16:58;;;;;;;3.67;1.45;;;;;;;29.15;31.44;99170.06;6174760;23;20016;-73
2022/09/28 08:19:24;;;;;;;1.92;1.25;;;;;;;29.83;30.10;99138.72;6175092;23;20118;-66
2022/09/28 08:21:49;;;;;;;4.22;1.30;;;;;;;30.11;29.00;99164.78;6175586;23;20005;-66
2022/09/28 08:24:16;;;;;;;1.95;1.00;;;;;;;30.22;28.63;99169.13;6175697;23;20003;-67
2022/09/28 08:26:43;;;;;;;2.42;1.00;;;;;;;30.53;28.41;99174.09;6176163;23;20465;-74
2022/09/28 08:29:09;;;;;;;2.45;1.25;;;;;;;30.78;28.31;99159.19;6150290;23;20017;-73
2022/09/28 08:31:35;;;;;;;1.88;1.50;;;;;;;30.91;28.21;99182.59;6176243;23;20021;-73
2022/09/28 08:34:00;;;;;;;1.83;1.35;;;;;;;29.91;29.75;99154.69;6176504;23;20425;-73
2022/09/28 08:36:27;;;;;;;4.25;1.60;;;;;;;30.09;29.47;99186.38;6176699;23;20341;-73
2022/09/28 08:38:53;;;;;;;2.47;1.30;;;;;;;30.52;28.79;99191.00;6176546;23;20005;-72
2022/09/28 08:41:35;;;;;;;2.45;1.52;;;;;;;31.22;27.74;99197.72;6176355;23;20425;-73
2022/09/28 08:44:13;;;;;;;4.55;1.40;;;;;;;31.67;27.22;99189.69;6176652;23;20500;-73
2022/09/28 08:46:48;;;;;;;3.92;1.40;;;;;;;31.43;27.29;99172.25;6176163;23;20005;-72
2022/09/28 08:49:40;;;;;;;1.52;1.30;;;;;;;31.16;27.30;99191.44;6176668;23;20311;-71
2022/09/28 08:52:25;;;;;;;3.75;1.42;;;;;;;31.05;27.59;99189.06;6176507;23;20029;-73
2022/09/28 08:54:53;;;;;;;3.85;1.40;;;;;;;31.79;26.71;99183.69;6176194;23;20009;-73
2022/09/28 08:57:26;;;;;;;2.28;1.40;;;;;;;31.93;26.63;99174.34;6176079;23;20005;-74
2022/09/28 08:59:54;;;;;;;4.63;1.88;;;;;;;32.26;26.37;99164.91;6149895;23;20080;-73
2022/09/28 09:02:33;;;;;;;3.10;1.27;;;;;;;32.25;26.00;99173.53;6176397;23;20009;-73
2022/09/28 09:05:04;;;;;;;1.45;0.98;;;;;;;32.35;26.15;99179.78;6177779;23;20005;-73
2022/09/28 09:07:32;;;;;;;3.60;1.50;;;;;;;33.18;25.52;99178.78;6177565;23;20013;-73
2022/09/28 09:10:13;;;;;;;1.55;1.27;;;;;;;32.68;25.92;99180.56;6177548;23;20009;-73
2022/09/28 09:12:59;;;;;;;5.80;1.42;;;;;;;31.78;26.89;99165.38;6176899;23;20016;-74
2022/09/28 09:15:37;;;;;;;1.88;1.20;;;;;;;32.63;26.11;99172.34;6177249;23;20100;-74
2022/09/28 09:18:30;;;;;;;1.77;1.30;;;;;;;33.56;24.87;99164.31;6177055;23;20039;-74
2022/09/28 09:20:58;;;;;;;2.97;1.10;;;;;;;33.30;24.91;99174.31;6177058;23;20005;-74
2022/09/28 09:23:37;;;;;;;1.23;0.93;;;;;;;33.19;24.32;99161.78;6176247;23;20028;-73
2022/09/28 09:26:16;;;;;;;2.05;1.00;;;;;;;32.40;25.28;99167.75;6177054;23;20337;-74
2022/09/28 09:28:44;;;;;;;2.45;1.00;;;;;;;32.90;24.98;99161.28;6176740;23;20009;-73
2022/09/28 09:31:35;;;;;;;1.08;0.93;;;;;;;33.40;24.45;99159.44;6176555;23;20014;-74
2022/09/28 09:34:09;;;;;;;1.67;0.70;;;;;;;33.70;24.00;99153.16;6176850;23;20015;-73
2022/09/28 09:36:58;;;;;;;2.00;0.95;;;;;;;34.46;22.60;99145.47;6176577;23;20005;-73
2022/09/28 09:39:45;;;;;;;1.10;0.70;;;;;;;34.59;23.11;99143.72;6177089;23;20100;-74
2022/09/28 09:42:28;;;;;;;2.30;0.60;;;;;;;34.86;22.10;99148.31;6178176;23;20005;-74
2022/09/28 09:45:27;;;;;;;0.93;0.63;;;;;;;34.01;22.71;99146.59;6179993;23;20005;-73
2022/09/28 09:48:19;;;;;;;0.93;0.60;;;;;;;34.63;22.07;99128.03;6179933;23;20001;-73
2022/09/28 09:50:50;;;;;;;0.50;0.50;;;;;;;34.62;21.90;99142.28;6153323;23;20036;-73
2022/09/28 09:53:51;;;;;;;1.65;0.70;;;;;;;35.36;21.59;99133.72;6180207;23;20009;-73
2022/09/28 09:56:27;;;;;;;1.13;0.60;;;;;;;35.85;21.04;99127.72;6180278;23;20021;-71
2022/09/28 09:58:57;;;;;;;0.68;0.60;;;;;;;35.32;21.39;99113.22;6176555;23;20062;-64
2022/09/28 10:01:32;;;;;;;3.35;0.80;;;;;;;34.54;22.89;99135.50;6176739;23;20433;-66
2022/09/28 10:03:59;;;;;;;2.28;0.85;;;;;;;33.69;23.33;99123.72;6150306;23;20223;-64
2022/09/28 10:06:32;;;;;;;1.67;0.68;;;;;;;33.97;22.31;99140.00;6176445;23;20027;-64
2022/09/28 10:09:04;;;;;;;1.17;0.60;;;;;;;32.49;24.33;99144.53;6176840;23;20018;-64
2022/09/28 10:11:53;;;;;;;4.13;0.50;;;;;;;30.85;26.43;99151.34;6149994;23;20005;-66
2022/09/28 10:14:21;;;;;;;0.50;0.50;;;;;;;30.47;26.38;99146.75;6176198;23;20054;-66
2022/09/28 10:16:53;;;;;;;2.38;0.75;;;;;;;28.78;28.96;99152.19;6176494;23;20008;-66
2022/09/28 10:19:23;;;;;;;1.02;0.68;;;;;;;27.51;30.48;99161.56;6150283;23;20016;-65
2022/09/28 10:21:50;;;;;;;0.98;0.50;;;;;;;26.53;31.70;99161.59;6176394;23;20719;-66
2022/09/28 10:24:28;;;;;;;2.00;0.50;;;;;;;25.78;33.23;99175.56;6176357;23;20677;-66
2022/09/28 10:26:57;;;;;;;2.20;0.60;;;;;;;25.02;34.69;99172.22;6176446;23;20077;-66
2022/09/28 10:29:25;;;;;;;1.15;0.40;;;;;;;24.41;35.64;99171.31;6176531;23;20062;-66
2022/09/28 10:31:53;;;;;;;0.73;0.50;;;;;;;23.80;36.72;99162.38;6176059;23;20029;-65
2022/09/28 10:34:26;;;;;;;0.60;0.55;;;;;;;23.53;36.92;99159.41;6176268;23;20001;-66
2022/09/28 10:36:58;;;;;;;1.25;0.70;;;;;;;23.03;36.78;99157.56;6176300;23;20001;-66
2022/09/28 10:39:32;;;;;;;1.35;0.50;;;;;;;22.65;38.05;99155.41;6176599;23;20437;-66
2022/09/28 10:42:02;;;;;;;2.47;0.50;;;;;;;22.23;39.16;99151.13;6176530;23;19997;-66
2022/09/28 10:44:31;;;;;;;0.85;0.47;;;;;;;21.95;40.19;99157.28;6176591;23;20008;-66
2022/09/28 10:47:03;;;;;;;1.77;0.50;;;;;;;21.81;40.76;99165.94;6176330;23;20438;-66
2022/09/28 10:49:38;;;;;;;1.73;0.80;;;;;;;21.62;41.28;99161.56;6176523;23;20095;-66
2022/09/28 10:52:07;;;;;;;2.95;0.50;;;;;;;21.57;40.74;99161.47;6176163;23;20009;-66
2022/09/28 10:54:33;;;;;;;1.13;0.70;;;;;;;21.34;41.14;99134.94;6176445;23;20066;-67
2022/09/28 10:56:59;;;;;;;3.65;0.77;;;;;;;21.32;41.71;99153.44;6176187;23;20084;-65
2022/09/28 10:59:27;;;;;;;2.47;0.70;;;;;;;21.20;42.20;99157.16;6176252;23;20031;-66
2022/09/28 11:01:56;;;;;;;1.02;0.75;;;;;;;21.08;43.03;99162.56;6176358;23;20433;-66
2022/09/28 11:04:28;;;;;;;3.05;0.70;;;;;;;21.03;43.20;99164.31;6176731;23;20005;-65
2022/09/28 11:06:58;;;;;;;1.63;0.55;;;;;;;20.80;43.23;99145.09;6150411;23;20060;-65
2022/09/28 11:09:40;;;;;;;1.20;0.50;;;;;;;20.91;43.06;99158.78;6150130;23;20016;-65
2022/09/28 11:12:13;;;;;;;1.65;0.60;;;;;;;20.93;43.12;99159.38;6149648;23;20091;-66
2022/09/28 11:14:45;;;;;;;2.38;0.73;;;;;;;20.83;42.80;99152.81;6176656;23;20368;-65
2022/09/28 11:17:17;;;;;;;0.82;0.60;;;;;;;20.73;43.77;99150.59;6176577;23;20057;-66
2022/09/28 11:19:42;;;;;;;2.72;0.50;;;;;;;20.56;43.57;99135.09;6150050;22;20020;-66
2022/09/28 11:22:22;;;;;;;0.98;0.50;;;;;;;20.59;43.96;99151.81;6175874;23;20090;-65
2022/09/28 11:24:48;;;;;;;1.60;0.75;;;;;;;20.56;44.41;99152.28;6176088;23;20013;-65
2022/09/28 11:27:24;;;;;;;0.50;0.50;;;;;;;20.58;44.65;99157.50;6149619;22;20013;-66
2022/09/28 11:29:59;;;;;;;1.02;0.75;;;;;;;20.57;44.81;99150.41;6176171;23;20009;-65
2022/09/28 11:32:38;;;;;;;1.20;0.65;;;;;;;20.55;44.69;99156.06;6150036;23;20117;-73
2022/09/28 11:35:04;;;;;;;2.03;0.77;;;;;;;20.47;44.42;99150.09;6177111;23;20417;-73
2022/09/28 11:37:49;;;;;;;1.38;0.80;;;;;;;20.45;44.66;99147.59;6177685;23;20005;-73
2022/09/28 11:40:36;;;;;;;2.00;0.98;;;;;;;20.40;44.82;99158.31;6177433;23;20009;-73
2022/09/28 11:43:17;;;;;;;2.13;0.77;;;;;;;20.37;44.52;99160.69;6178212;23;20408;-73
2022/09/28 11:46:05;;;;;;;1.58;0.85;;;;;;;20.31;44.83;99151.50;6152179;22;20035;-65
2022/09/28 11:48:44;;;;;;;2.17;1.00;;;;;;;20.19;45.07;99145.97;6176236;23;20001;-65
2022/09/28 11:51:29;;;;;;;1.60;0.60;;;;;;;20.09;45.71;99131.19;6150104;22;20048;-65
2022/09/28 11:54:03;;;;;;;1.10;0.68;;;;;;;20.13;45.62;99133.22;6176357;23;20460;-65